sensor_id;sensor_type;location;lat;lon;timestamp;pressure;altitude;pressure_sealevel;temperature;humidity
75157;BME280;63736;50.076;8.198;2023-08-06T00:00:37;98597.59;;;16.82;100.00
75157;BME280;63736;50.076;8.198;2023-08-06T00:03:03;98594.72;;;16.84;100.00
75157;BME280;63736;50.076;8.198;2023-08-06T00:05:28;98589.16;;;16.85;100.00
75157;BME280;63736;50.076;8.198;2023-08-06T00:07:53;98590.78;;;16.87;100.00
75157;BME280;63736;50.076;8.198;2023-08-06T00:10:18;98586.88;;;16.89;100.00
75157;BME280;63736;50.076;8.198;2023-08-06T00:12:44;98586.06;;;16.89;100.00
75157;BME280;63736;50.076;8.198;2023-08-06T00:15:10;98583.34;;;16.89;100.00
75157;BME280;63736;50.076;8.198;2023-08-06T00:17:35;98576.28;;;16.88;100.00
75157;BME280;63736;50.076;8.198;2023-08-06T00:20:01;98573.59;;;16.88;100.00
75157;BME280;63736;50.076;8.198;2023-08-06T00:22:37;98576.47;;;16.86;100.00
75157;BME280;63736;50.076;8.198;2023-08-06T00:25:03;98560.31;;;16.86;100.00
75157;BME280;63736;50.076;8.198;2023-08-06T00:27:28;98561.31;;;16.85;100.00
75157;BME280;63736;50.076;8.198;2023-08-06T00:29:53;98559.03;;;16.82;100.00
75157;BME280;63736;50.076;8.198;2023-08-06T00:32:19;98564.41;;;16.82;100.00
75157;BME280;63736;50.076;8.198;2023-08-06T00:34:44;98550.94;;;16.82;100.00
75157;BME280;63736;50.076;8.198;2023-08-06T00:37:09;98560.03;;;16.81;100.00
75157;BME280;63736;50.076;8.198;2023-08-06T00:39:34;98550.06;;;16.81;100.00
75157;BME280;63736;50.076;8.198;2023-08-06T00:41:59;98544.69;;;16.81;100.00
75157;BME280;63736;50.076;8.198;2023-08-06T00:44:25;98545.91;;;16.79;100.00
75157;BME280;63736;50.076;8.198;2023-08-06T00:46:50;98548.44;;;16.80;100.00
75157;BME280;63736;50.076;8.198;2023-08-06T00:49:15;98536.78;;;16.80;100.00
75157;BME280;63736;50.076;8.198;2023-08-06T00:51:40;98533.91;;;16.81;100.00
75157;BME280;63736;50.076;8.198;2023-08-06T00:54:06;98539.28;;;16.81;100.00
75157;BME280;63736;50.076;8.198;2023-08-06T00:56:32;98533.91;;;16.81;100.00
75157;BME280;63736;50.076;8.198;2023-08-06T00:58:59;98529.56;;;16.80;100.00
75157;BME280;63736;50.076;8.198;2023-08-06T01:01:25;98532.88;;;16.82;100.00
75157;BME280;63736;50.076;8.198;2023-08-06T01:03:50;98524.78;;;16.82;100.00
75157;BME280;63736;50.076;8.198;2023-08-06T01:06:16;98517.53;;;16.83;100.00
75157;BME280;63736;50.076;8.198;2023-08-06T01:08:48;98515.66;;;16.83;100.00
75157;BME280;63736;50.076;8.198;2023-08-06T01:13:45;98507.97;;;16.80;100.00
75157;BME280;63736;50.076;8.198;2023-08-06T01:16:13;98505.28;;;16.80;100.00
75157;BME280;63736;50.076;8.198;2023-08-06T01:18:39;98506.94;;;16.81;100.00
75157;BME280;63736;50.076;8.198;2023-08-06T01:21:06;98506.09;;;16.81;100.00
75157;BME280;63736;50.076;8.198;2023-08-06T01:23:32;98499.69;;;16.82;100.00
75157;BME280;63736;50.076;8.198;2023-08-06T01:28:33;98504.69;;;16.85;100.00
75157;BME280;63736;50.076;8.198;2023-08-06T01:31:05;98503.84;;;16.84;100.00
75157;BME280;63736;50.076;8.198;2023-08-06T01:33:32;98505.69;;;16.84;100.00
75157;BME280;63736;50.076;8.198;2023-08-06T01:35:59;98505.09;;;16.82;100.00
75157;BME280;63736;50.076;8.198;2023-08-06T01:38:25;98500.91;;;16.79;100.00
75157;BME280;63736;50.076;8.198;2023-08-06T01:40:50;98502.97;;;16.77;100.00
75157;BME280;63736;50.076;8.198;2023-08-06T01:43:15;98500.25;;;16.77;100.00
75157;BME280;63736;50.076;8.198;2023-08-06T01:45:41;98503.97;;;16.76;100.00
75157;BME280;63736;50.076;8.198;2023-08-06T01:48:06;98500.66;;;16.74;100.00
75157;BME280;63736;50.076;8.198;2023-08-06T01:50:31;98498.78;;;16.75;100.00
75157;BME280;63736;50.076;8.198;2023-08-06T01:52:56;98500.66;;;16.74;100.00
75157;BME280;63736;50.076;8.198;2023-08-06T01:55:21;98498.97;;;16.73;100.00
75157;BME280;63736;50.076;8.198;2023-08-06T01:57:46;98500.00;;;16.72;100.00
75157;BME280;63736;50.076;8.198;2023-08-06T02:00:12;98499.19;;;16.72;100.00
75157;BME280;63736;50.076;8.198;2023-08-06T02:02:37;98507.28;;;16.72;100.00
75157;BME280;63736;50.076;8.198;2023-08-06T02:05:02;98494.81;;;16.71;100.00
75157;BME280;63736;50.076;8.198;2023-08-06T02:07:27;98488.81;;;16.68;100.00
75157;BME280;63736;50.076;8.198;2023-08-06T02:09:53;98490.03;;;16.66;100.00
75157;BME280;63736;50.076;8.198;2023-08-06T02:12:18;98485.19;;;16.61;100.00
75157;BME280;63736;50.076;8.198;2023-08-06T02:14:43;98487.38;;;16.51;100.00
75157;BME280;63736;50.076;8.198;2023-08-06T02:17:08;98480.25;;;16.43;100.00
75157;BME280;63736;50.076;8.198;2023-08-06T02:19:33;98470.63;;;16.34;100.00
75157;BME280;63736;50.076;8.198;2023-08-06T02:21:58;98465.53;;;16.24;100.00
75157;BME280;63736;50.076;8.198;2023-08-06T02:24:24;98475.91;;;16.21;100.00
75157;BME280;63736;50.076;8.198;2023-08-06T02:26:49;98473.38;;;16.19;100.00
75157;BME280;63736;50.076;8.198;2023-08-06T02:29:16;98475.03;;;16.20;100.00
75157;BME280;63736;50.076;8.198;2023-08-06T02:31:41;98470.50;;;16.21;100.00
75157;BME280;63736;50.076;8.198;2023-08-06T02:34:06;98463.06;;;16.23;100.00
75157;BME280;63736;50.076;8.198;2023-08-06T02:36:31;98459.13;;;16.25;100.00
75157;BME280;63736;50.076;8.198;2023-08-06T02:38:56;98455.41;;;16.26;100.00
75157;BME280;63736;50.076;8.198;2023-08-06T02:41:22;98455.22;;;16.28;100.00
75157;BME280;63736;50.076;8.198;2023-08-06T02:43:47;98448.63;;;16.30;100.00
75157;BME280;63736;50.076;8.198;2023-08-06T02:46:12;98438.50;;;16.32;100.00
75157;BME280;63736;50.076;8.198;2023-08-06T02:48:37;98437.91;;;16.37;100.00
75157;BME280;63736;50.076;8.198;2023-08-06T02:51:02;98442.06;;;16.40;100.00
75157;BME280;63736;50.076;8.198;2023-08-06T02:53:28;98432.97;;;16.41;100.00
75157;BME280;63736;50.076;8.198;2023-08-06T02:55:53;98428.22;;;16.43;100.00
75157;BME280;63736;50.076;8.198;2023-08-06T02:58:19;98435.25;;;16.44;100.00
75157;BME280;63736;50.076;8.198;2023-08-06T03:00:58;98439.63;;;16.45;100.00
75157;BME280;63736;50.076;8.198;2023-08-06T03:03:24;98433.63;;;16.43;100.00
75157;BME280;63736;50.076;8.198;2023-08-06T03:05:55;98429.03;;;16.43;100.00
75157;BME280;63736;50.076;8.198;2023-08-06T03:08:20;98425.06;;;16.39;100.00
75157;BME280;63736;50.076;8.198;2023-08-06T03:10:47;98426.09;;;16.38;100.00
75157;BME280;63736;50.076;8.198;2023-08-06T03:13:12;98426.09;;;16.38;100.00
75157;BME280;63736;50.076;8.198;2023-08-06T03:15:38;98424.41;;;16.37;100.00
75157;BME280;63736;50.076;8.198;2023-08-06T03:18:03;98422.78;;;16.36;100.00
75157;BME280;63736;50.076;8.198;2023-08-06T03:20:28;98411.34;;;16.34;100.00
75157;BME280;63736;50.076;8.198;2023-08-06T03:22:53;98411.53;;;16.32;100.00
75157;BME280;63736;50.076;8.198;2023-08-06T03:25:18;98415.47;;;16.30;100.00
75157;BME280;63736;50.076;8.198;2023-08-06T03:27:43;98409.63;;;16.26;100.00
75157;BME280;63736;50.076;8.198;2023-08-06T03:30:09;98406.66;;;16.21;100.00
75157;BME280;63736;50.076;8.198;2023-08-06T03:32:34;98408.44;;;16.14;100.00
75157;BME280;63736;50.076;8.198;2023-08-06T03:34:59;98409.81;;;16.03;100.00
75157;BME280;63736;50.076;8.198;2023-08-06T03:37:25;98406.38;;;15.94;100.00
75157;BME280;63736;50.076;8.198;2023-08-06T03:39:50;98406.53;;;15.86;100.00
75157;BME280;63736;50.076;8.198;2023-08-06T03:42:15;98406.25;;;15.81;100.00
75157;BME280;63736;50.076;8.198;2023-08-06T03:44:40;98397.69;;;15.77;100.00
75157;BME280;63736;50.076;8.198;2023-08-06T03:47:05;98395.00;;;15.77;100.00
75157;BME280;63736;50.076;8.198;2023-08-06T03:49:31;98397.31;;;15.80;100.00
75157;BME280;63736;50.076;8.198;2023-08-06T03:51:56;98401.53;;;15.83;100.00
75157;BME280;63736;50.076;8.198;2023-08-06T03:54:21;98410.88;;;15.87;100.00
75157;BME280;63736;50.076;8.198;2023-08-06T03:56:46;98402.63;;;15.89;100.00
75157;BME280;63736;50.076;8.198;2023-08-06T03:59:11;98396.84;;;15.92;100.00
75157;BME280;63736;50.076;8.198;2023-08-06T04:01:37;98393.97;;;15.93;100.00
75157;BME280;63736;50.076;8.198;2023-08-06T04:04:02;98401.66;;;15.96;100.00
75157;BME280;63736;50.076;8.198;2023-08-06T04:06:27;98403.34;;;15.97;100.00
75157;BME280;63736;50.076;8.198;2023-08-06T04:08:52;98400.84;;;15.96;100.00
75157;BME280;63736;50.076;8.198;2023-08-06T04:11:17;98400.38;;;15.92;100.00
75157;BME280;63736;50.076;8.198;2023-08-06T04:13:43;98406.78;;;15.91;100.00
75157;BME280;63736;50.076;8.198;2023-08-06T04:16:09;98405.50;;;15.87;100.00
75157;BME280;63736;50.076;8.198;2023-08-06T04:18:34;98401.53;;;15.83;100.00
75157;BME280;63736;50.076;8.198;2023-08-06T04:20:59;98393.78;;;15.80;100.00
75157;BME280;63736;50.076;8.198;2023-08-06T04:23:26;98394.38;;;15.75;100.00
75157;BME280;63736;50.076;8.198;2023-08-06T04:25:51;98387.50;;;15.73;100.00
75157;BME280;63736;50.076;8.198;2023-08-06T04:28:16;98387.88;;;15.69;100.00
75157;BME280;63736;50.076;8.198;2023-08-06T04:30:41;98392.44;;;15.69;100.00
75157;BME280;63736;50.076;8.198;2023-08-06T04:33:07;98392.44;;;15.69;100.00
75157;BME280;63736;50.076;8.198;2023-08-06T04:35:32;98391.41;;;15.70;100.00
75157;BME280;63736;50.076;8.198;2023-08-06T04:37:57;98388.31;;;15.73;100.00
75157;BME280;63736;50.076;8.198;2023-08-06T04:40:22;98386.50;;;15.74;100.00
75157;BME280;63736;50.076;8.198;2023-08-06T04:42:47;98386.50;;;15.74;100.00
75157;BME280;63736;50.076;8.198;2023-08-06T04:45:13;98387.97;;;15.76;100.00
75157;BME280;63736;50.076;8.198;2023-08-06T04:47:38;98383.41;;;15.77;100.00
75157;BME280;63736;50.076;8.198;2023-08-06T04:50:03;98386.75;;;15.79;100.00
75157;BME280;63736;50.076;8.198;2023-08-06T04:52:28;98387.56;;;15.79;100.00
75157;BME280;63736;50.076;8.198;2023-08-06T04:54:54;98383.88;;;15.80;100.00
75157;BME280;63736;50.076;8.198;2023-08-06T04:57:19;98385.38;;;15.83;100.00
75157;BME280;63736;50.076;8.198;2023-08-06T04:59:45;98393.66;;;15.81;100.00
75157;BME280;63736;50.076;8.198;2023-08-06T05:02:10;98390.09;;;15.81;100.00
75157;BME280;63736;50.076;8.198;2023-08-06T05:04:35;98386.56;;;15.80;100.00
75157;BME280;63736;50.076;8.198;2023-08-06T05:07:00;98387.56;;;15.79;100.00
75157;BME280;63736;50.076;8.198;2023-08-06T05:09:25;98392.31;;;15.77;100.00
75157;BME280;63736;50.076;8.198;2023-08-06T05:11:51;98387.97;;;15.76;100.00
75157;BME280;63736;50.076;8.198;2023-08-06T05:14:16;98384.41;;;15.76;100.00
75157;BME280;63736;50.076;8.198;2023-08-06T05:16:41;98384.41;;;15.76;100.00
75157;BME280;63736;50.076;8.198;2023-08-06T05:19:06;98385.28;;;15.76;100.00
75157;BME280;63736;50.076;8.198;2023-08-06T05:21:31;98385.06;;;15.78;100.00
75157;BME280;63736;50.076;8.198;2023-08-06T05:23:56;98382.59;;;15.76;100.00
75157;BME280;63736;50.076;8.198;2023-08-06T05:26:22;98387.31;;;15.74;100.00
75157;BME280;63736;50.076;8.198;2023-08-06T05:28:47;98382.75;;;15.75;100.00
75157;BME280;63736;50.076;8.198;2023-08-06T05:31:12;98387.31;;;15.74;100.00
75157;BME280;63736;50.076;8.198;2023-08-06T05:33:37;98381.28;;;15.72;100.00
75157;BME280;63736;50.076;8.198;2023-08-06T05:36:03;98384.63;;;15.74;100.00
75157;BME280;63736;50.076;8.198;2023-08-06T05:38:29;98382.38;;;15.78;100.00
75157;BME280;63736;50.076;8.198;2023-08-06T05:40:54;98378.47;;;15.80;100.00
75157;BME280;63736;50.076;8.198;2023-08-06T05:43:20;98378.31;;;15.82;100.00
75157;BME280;63736;50.076;8.198;2023-08-06T05:45:45;98381.00;;;15.82;100.00
75157;BME280;63736;50.076;8.198;2023-08-06T05:48:11;98388.06;;;15.83;100.00
75157;BME280;63736;50.076;8.198;2023-08-06T05:50:36;98387.03;;;15.84;100.00
75157;BME280;63736;50.076;8.198;2023-08-06T05:53:01;98386.84;;;15.85;100.00
75157;BME280;63736;50.076;8.198;2023-08-06T05:55:27;98389.34;;;15.87;100.00
75157;BME280;63736;50.076;8.198;2023-08-06T05:57:52;98390.16;;;15.88;100.00
75157;BME280;63736;50.076;8.198;2023-08-06T06:00:17;98385.81;;;15.86;100.00
75157;BME280;63736;50.076;8.198;2023-08-06T06:02:43;98388.69;;;15.85;100.00
75157;BME280;63736;50.076;8.198;2023-08-06T06:05:08;98390.56;;;15.84;100.00
75157;BME280;63736;50.076;8.198;2023-08-06T06:07:34;98388.06;;;15.83;100.00
75157;BME280;63736;50.076;8.198;2023-08-06T06:09:59;98388.06;;;15.83;100.00
75157;BME280;63736;50.076;8.198;2023-08-06T06:12:24;98383.88;;;15.80;100.00
75157;BME280;63736;50.076;8.198;2023-08-06T06:14:51;98390.66;;;15.76;100.00
75157;BME280;63736;50.076;8.198;2023-08-06T06:17:16;98389.34;;;15.72;100.00
75157;BME280;63736;50.076;8.198;2023-08-06T06:19:41;98388.13;;;15.75;100.00
75157;BME280;63736;50.076;8.198;2023-08-06T06:22:06;98392.31;;;15.77;100.00
75157;BME280;63736;50.076;8.198;2023-08-06T06:24:31;98395.50;;;15.81;100.00
75157;BME280;63736;50.076;8.198;2023-08-06T06:26:57;98397.31;;;15.80;100.00
75157;BME280;63736;50.076;8.198;2023-08-06T06:29:22;98402.53;;;15.82;100.00
75157;BME280;63736;50.076;8.198;2023-08-06T06:31:47;98403.56;;;15.81;100.00
75157;BME280;63736;50.076;8.198;2023-08-06T06:34:12;98397.53;;;15.79;100.00
75157;BME280;63736;50.076;8.198;2023-08-06T06:36:37;98404.28;;;15.75;100.00
75157;BME280;63736;50.076;8.198;2023-08-06T06:39:02;98405.34;;;15.74;100.00
75157;BME280;63736;50.076;8.198;2023-08-06T06:41:28;98401.59;;;15.75;100.00
75157;BME280;63736;50.076;8.198;2023-08-06T06:43:56;98406.16;;;15.74;100.00
75157;BME280;63736;50.076;8.198;2023-08-06T06:46:21;98401.22;;;15.78;100.00
75157;BME280;63736;50.076;8.198;2023-08-06T06:48:46;98403.38;;;15.82;100.00
75157;BME280;63736;50.076;8.198;2023-08-06T06:51:12;98402.16;;;15.85;100.00
75157;BME280;63736;50.076;8.198;2023-08-06T06:53:37;98403.00;;;15.85;100.00
75157;BME280;63736;50.076;8.198;2023-08-06T06:56:02;98404.03;;;15.84;100.00
75157;BME280;63736;50.076;8.198;2023-08-06T06:58:28;98397.81;;;15.84;100.00
75157;BME280;63736;50.076;8.198;2023-08-06T07:00:53;98402.16;;;15.85;100.00
75157;BME280;63736;50.076;8.198;2023-08-06T07:03:21;98401.34;;;15.84;100.00
75157;BME280;63736;50.076;8.198;2023-08-06T07:05:46;98403.00;;;15.85;100.00
75157;BME280;63736;50.076;8.198;2023-08-06T07:08:12;98407.59;;;15.92;100.00
75157;BME280;63736;50.076;8.198;2023-08-06T07:10:37;98406.84;;;15.98;100.00
75157;BME280;63736;50.076;8.198;2023-08-06T07:13:02;98407.09;;;16.03;100.00
75157;BME280;63736;50.076;8.198;2023-08-06T07:15:27;98402.19;;;16.07;100.00
75157;BME280;63736;50.076;8.198;2023-08-06T07:17:52;98401.97;;;16.08;100.00
75157;BME280;63736;50.076;8.198;2023-08-06T07:20:18;98406.16;;;16.11;100.00
75157;BME280;63736;50.076;8.198;2023-08-06T07:22:43;98413.59;;;16.09;100.00
75157;BME280;63736;50.076;8.198;2023-08-06T07:25:08;98409.50;;;16.13;100.00
75157;BME280;63736;50.076;8.198;2023-08-06T07:27:34;98410.56;;;16.18;100.00
75157;BME280;63736;50.076;8.198;2023-08-06T07:29:59;98408.34;;;16.22;100.00
75157;BME280;63736;50.076;8.198;2023-08-06T07:32:24;98413.59;;;16.30;100.00
75157;BME280;63736;50.076;8.198;2023-08-06T07:34:49;98416.22;;;16.45;100.00
75157;BME280;63736;50.076;8.198;2023-08-06T07:37:14;98408.44;;;16.57;100.00
75157;BME280;63736;50.076;8.198;2023-08-06T07:39:40;98407.75;;;16.77;100.00
75157;BME280;63736;50.076;8.198;2023-08-06T07:42:06;98408.59;;;17.06;100.00
75157;BME280;63736;50.076;8.198;2023-08-06T07:44:32;98407.50;;;17.35;100.00
75157;BME280;63736;50.076;8.198;2023-08-06T07:46:57;98407.22;;;17.65;100.00
75157;BME280;63736;50.076;8.198;2023-08-06T07:49:23;98403.91;;;17.76;100.00
75157;BME280;63736;50.076;8.198;2023-08-06T07:51:48;98399.34;;;17.77;100.00
75157;BME280;63736;50.076;8.198;2023-08-06T07:54:13;98411.59;;;17.73;100.00
75157;BME280;63736;50.076;8.198;2023-08-06T07:56:39;98408.03;;;17.59;100.00
75157;BME280;63736;50.076;8.198;2023-08-06T07:59:04;98412.94;;;17.42;100.00
75157;BME280;63736;50.076;8.198;2023-08-06T08:01:29;98405.56;;;17.22;100.00
75157;BME280;63736;50.076;8.198;2023-08-06T08:03:54;98408.59;;;17.06;100.00
75157;BME280;63736;50.076;8.198;2023-08-06T08:06:19;98414.75;;;16.99;100.00
75157;BME280;63736;50.076;8.198;2023-08-06T08:08:45;98408.16;;;17.02;100.00
75157;BME280;63736;50.076;8.198;2023-08-06T08:11:10;98399.06;;;17.10;100.00
75157;BME280;63736;50.076;8.198;2023-08-06T08:13:35;98396.72;;;17.35;100.00
75157;BME280;63736;50.076;8.198;2023-08-06T08:16:00;98396.94;;;17.95;100.00
75157;BME280;63736;50.076;8.198;2023-08-06T08:18:26;98396.13;;;18.89;100.00
75157;BME280;63736;50.076;8.198;2023-08-06T08:20:51;98385.44;;;19.73;100.00
75157;BME280;63736;50.076;8.198;2023-08-06T08:23:17;98384.94;;;20.28;100.00
75157;BME280;63736;50.076;8.198;2023-08-06T08:25:42;98386.16;;;20.57;100.00
75157;BME280;63736;50.076;8.198;2023-08-06T08:28:07;98388.38;;;20.92;100.00
75157;BME280;63736;50.076;8.198;2023-08-06T08:30:33;98379.47;;;21.22;100.00
75157;BME280;63736;50.076;8.198;2023-08-06T08:32:58;98371.63;;;21.33;100.00
75157;BME280;63736;50.076;8.198;2023-08-06T08:35:23;98368.38;;;22.22;100.00
75157;BME280;63736;50.076;8.198;2023-08-06T08:37:49;98375.06;;;23.73;96.96
75157;BME280;63736;50.076;8.198;2023-08-06T08:40:15;98374.94;;;24.43;85.18
75157;BME280;63736;50.076;8.198;2023-08-06T08:42:40;98379.91;;;24.46;81.73
75157;BME280;63736;50.076;8.198;2023-08-06T08:45:12;98377.94;;;24.41;80.52
75157;BME280;63736;50.076;8.198;2023-08-06T08:47:40;98377.41;;;24.28;80.71
75157;BME280;63736;50.076;8.198;2023-08-06T08:50:07;98368.53;;;25.05;75.42
75157;BME280;63736;50.076;8.198;2023-08-06T08:52:33;98372.25;;;25.38;71.16
75157;BME280;63736;50.076;8.198;2023-08-06T08:55:01;98379.47;;;25.05;73.70
75157;BME280;63736;50.076;8.198;2023-08-06T08:57:26;98373.03;;;24.27;73.37
75157;BME280;63736;50.076;8.198;2023-08-06T08:59:52;98372.59;;;23.60;76.85
75157;BME280;63736;50.076;8.198;2023-08-06T09:02:17;98375.06;;;23.09;80.97
75157;BME280;63736;50.076;8.198;2023-08-06T09:04:44;98373.91;;;22.93;84.05
75157;BME280;63736;50.076;8.198;2023-08-06T09:07:13;98379.44;;;22.74;83.71
75157;BME280;63736;50.076;8.198;2023-08-06T09:09:40;98368.81;;;22.73;85.71
75157;BME280;63736;50.076;8.198;2023-08-06T09:12:13;98376.72;;;23.10;82.72
75157;BME280;63736;50.076;8.198;2023-08-06T09:14:39;98373.50;;;23.13;83.90
75157;BME280;63736;50.076;8.198;2023-08-06T09:17:05;98367.94;;;23.32;82.68
75157;BME280;63736;50.076;8.198;2023-08-06T09:19:31;98363.91;;;24.04;76.82
75157;BME280;63736;50.076;8.198;2023-08-06T09:21:57;98369.56;;;24.82;71.65
75157;BME280;63736;50.076;8.198;2023-08-06T09:24:22;98373.44;;;24.35;68.44
75157;BME280;63736;50.076;8.198;2023-08-06T09:26:47;98363.06;;;23.74;70.82
75157;BME280;63736;50.076;8.198;2023-08-06T09:29:13;98368.84;;;23.49;76.29
75157;BME280;63736;50.076;8.198;2023-08-06T09:31:45;98375.56;;;23.18;78.54
75157;BME280;63736;50.076;8.198;2023-08-06T09:34:21;98373.44;;;22.60;81.75
75157;BME280;63736;50.076;8.198;2023-08-06T09:36:53;98373.38;;;21.94;85.63
75157;BME280;63736;50.076;8.198;2023-08-06T09:39:20;98380.94;;;21.43;90.66
75157;BME280;63736;50.076;8.198;2023-08-06T09:41:46;98389.75;;;21.02;94.65
75157;BME280;63736;50.076;8.198;2023-08-06T09:44:18;98388.59;;;20.66;99.83
75157;BME280;63736;50.076;8.198;2023-08-06T09:46:47;98386.63;;;20.29;100.00
75157;BME280;63736;50.076;8.198;2023-08-06T09:49:13;98388.38;;;19.85;100.00
75157;BME280;63736;50.076;8.198;2023-08-06T09:51:38;98388.22;;;19.59;100.00
75157;BME280;63736;50.076;8.198;2023-08-06T09:54:04;98388.53;;;19.44;100.00
75157;BME280;63736;50.076;8.198;2023-08-06T09:56:30;98384.78;;;19.39;100.00
75157;BME280;63736;50.076;8.198;2023-08-06T09:59:02;98383.47;;;19.48;100.00
75157;BME280;63736;50.076;8.198;2023-08-06T10:01:27;98384.00;;;19.84;100.00
75157;BME280;63736;50.076;8.198;2023-08-06T10:03:53;98376.44;;;20.75;100.00
75157;BME280;63736;50.076;8.198;2023-08-06T10:06:20;98372.38;;;22.19;100.00
75157;BME280;63736;50.076;8.198;2023-08-06T10:08:45;98368.03;;;23.78;91.47
75157;BME280;63736;50.076;8.198;2023-08-06T10:11:11;98375.38;;;23.77;86.35
75157;BME280;63736;50.076;8.198;2023-08-06T10:13:38;98375.56;;;23.06;87.45
75157;BME280;63736;50.076;8.198;2023-08-06T10:16:04;98375.38;;;22.30;91.59
75157;BME280;63736;50.076;8.198;2023-08-06T10:18:30;98376.09;;;21.94;94.39
75157;BME280;63736;50.076;8.198;2023-08-06T10:20:56;98390.97;;;21.92;97.10
75157;BME280;63736;50.076;8.198;2023-08-06T10:23:32;98389.53;;;22.32;98.09
75157;BME280;63736;50.076;8.198;2023-08-06T10:25:58;98383.94;;;22.92;91.62
75157;BME280;63736;50.076;8.198;2023-08-06T10:28:34;98384.41;;;23.37;83.16
75157;BME280;63736;50.076;8.198;2023-08-06T10:31:01;98377.25;;;23.59;79.57
75157;BME280;63736;50.076;8.198;2023-08-06T10:33:40;98376.81;;;23.39;80.31
75157;BME280;63736;50.076;8.198;2023-08-06T10:36:08;98408.81;;;22.84;87.45
75157;BME280;63736;50.076;8.198;2023-08-06T10:38:35;98413.31;;;21.64;99.71
75157;BME280;63736;50.076;8.198;2023-08-06T10:41:03;98411.31;;;20.46;100.00
75157;BME280;63736;50.076;8.198;2023-08-06T10:43:33;98403.47;;;19.54;100.00
75157;BME280;63736;50.076;8.198;2023-08-06T10:46:01;98398.44;;;18.98;100.00
75157;BME280;63736;50.076;8.198;2023-08-06T10:48:45;98399.50;;;18.71;100.00
75157;BME280;63736;50.076;8.198;2023-08-06T10:51:12;98399.06;;;18.60;100.00
75157;BME280;63736;50.076;8.198;2023-08-06T10:53:42;98404.06;;;18.63;100.00
75157;BME280;63736;50.076;8.198;2023-08-06T10:56:17;98402.59;;;18.81;100.00
75157;BME280;63736;50.076;8.198;2023-08-06T10:58:43;98406.75;;;19.04;100.00
75157;BME280;63736;50.076;8.198;2023-08-06T11:01:10;98400.84;;;19.27;100.00
75157;BME280;63736;50.076;8.198;2023-08-06T11:03:36;98380.28;;;19.12;100.00
75157;BME280;63736;50.076;8.198;2023-08-06T11:06:01;98430.69;;;18.66;100.00
75157;BME280;63736;50.076;8.198;2023-08-06T11:08:33;98433.94;;;18.02;100.00
75157;BME280;63736;50.076;8.198;2023-08-06T11:11:09;98425.19;;;17.44;100.00
75157;BME280;63736;50.076;8.198;2023-08-06T11:13:37;98431.47;;;17.16;100.00
75157;BME280;63736;50.076;8.198;2023-08-06T11:16:02;98429.06;;;16.93;100.00
75157;BME280;63736;50.076;8.198;2023-08-06T11:18:28;98435.28;;;16.72;100.00
75157;BME280;63736;50.076;8.198;2023-08-06T11:20:53;98442.63;;;16.57;100.00
75157;BME280;63736;50.076;8.198;2023-08-06T11:23:19;98450.59;;;16.43;100.00
75157;BME280;63736;50.076;8.198;2023-08-06T11:25:44;98454.16;;;16.22;100.00
75157;BME280;63736;50.076;8.198;2023-08-06T11:28:11;98456.31;;;16.12;100.00
75157;BME280;63736;50.076;8.198;2023-08-06T11:30:37;98474.91;;;16.07;100.00
75157;BME280;63736;50.076;8.198;2023-08-06T11:33:03;98476.88;;;15.98;100.00
75157;BME280;63736;50.076;8.198;2023-08-06T11:35:28;98481.16;;;15.92;100.00
75157;BME280;63736;50.076;8.198;2023-08-06T11:37:53;98494.84;;;15.91;100.00
75157;BME280;63736;50.076;8.198;2023-08-06T11:40:20;98488.22;;;15.93;100.00
75157;BME280;63736;50.076;8.198;2023-08-06T11:42:46;98503.34;;;15.94;100.00
75157;BME280;63736;50.076;8.198;2023-08-06T11:45:12;98501.88;;;15.92;100.00
75157;BME280;63736;50.076;8.198;2023-08-06T11:47:40;98511.88;;;15.98;100.00
75157;BME280;63736;50.076;8.198;2023-08-06T11:50:06;98496.84;;;16.04;100.00
75157;BME280;63736;50.076;8.198;2023-08-06T11:52:31;98507.22;;;16.07;100.00
75157;BME280;63736;50.076;8.198;2023-08-06T11:55:07;98506.28;;;16.14;100.00
75157;BME280;63736;50.076;8.198;2023-08-06T11:57:39;98500.50;;;16.17;100.00
75157;BME280;63736;50.076;8.198;2023-08-06T12:00:10;98505.78;;;16.26;100.00
75157;BME280;63736;50.076;8.198;2023-08-06T12:02:38;98505.00;;;16.32;100.00
75157;BME280;63736;50.076;8.198;2023-08-06T12:05:14;98515.28;;;16.43;100.00
75157;BME280;63736;50.076;8.198;2023-08-06T12:07:47;98521.41;;;16.52;100.00
75157;BME280;63736;50.076;8.198;2023-08-06T12:10:13;98536.63;;;16.60;100.00
75157;BME280;63736;50.076;8.198;2023-08-06T12:12:40;98544.13;;;16.64;100.00
75157;BME280;63736;50.076;8.198;2023-08-06T12:15:06;98557.09;;;16.76;100.00
75157;BME280;63736;50.076;8.198;2023-08-06T12:17:32;98560.31;;;16.86;100.00
75157;BME280;63736;50.076;8.198;2023-08-06T12:19:58;98565.84;;;16.99;100.00
75157;BME280;63736;50.076;8.198;2023-08-06T12:22:23;98564.75;;;17.15;100.00
75157;BME280;63736;50.076;8.198;2023-08-06T12:24:49;98570.69;;;17.32;100.00
75157;BME280;63736;50.076;8.198;2023-08-06T12:27:15;98575.47;;;17.37;100.00
75157;BME280;63736;50.076;8.198;2023-08-06T12:29:46;98575.88;;;17.34;100.00
75157;BME280;63736;50.076;8.198;2023-08-06T12:32:12;98580.25;;;17.35;100.00
75157;BME280;63736;50.076;8.198;2023-08-06T12:34:38;98580.38;;;17.27;100.00
75157;BME280;63736;50.076;8.198;2023-08-06T12:37:04;98583.44;;;17.17;100.00
75157;BME280;63736;50.076;8.198;2023-08-06T12:39:30;98597.44;;;17.06;100.00
75157;BME280;63736;50.076;8.198;2023-08-06T12:41:56;98586.78;;;16.97;100.00
75157;BME280;63736;50.076;8.198;2023-08-06T12:44:23;98587.38;;;16.93;100.00
75157;BME280;63736;50.076;8.198;2023-08-06T12:46:49;98601.59;;;16.87;100.00
75157;BME280;63736;50.076;8.198;2023-08-06T12:49:14;98600.91;;;16.78;100.00